Time;durP1;ratioP1;P1;durP2;ratioP2;P2;SDS_P1;SDS_P2;PMS_P1;PMS_P2;Temp;Humidity;BMP_temperature;BMP_pressure;BME280_temperature;BME280_humidity;BME280_pressure;Samples;Min_cycle;Max_cycle;Signal;HPM_P1;HPM_P2
2022/04/09 00:02:07;;;;;;;7.50;1.58;;;5.20;99.90;;;;;;5155699;27;20501;-75
2022/04/09 00:04:32;;;;;;;4.82;1.20;;;5.10;99.90;;;;;;5156029;27;20045;-75
2022/04/09 00:06:58;;;;;;;4.07;0.95;;;5.10;99.90;;;;;;5155685;27;20049;-75
2022/04/09 00:09:24;;;;;;;8.38;1.23;;;5.00;99.90;;;;;;5156007;27;20057;-75
2022/04/09 00:11:49;;;;;;;6.30;1.45;;;4.90;99.90;;;;;;5120564;27;20046;-75
2022/04/09 00:14:15;;;;;;;7.22;1.58;;;4.90;99.90;;;;;;5137017;27;20042;-75
2022/04/09 00:16:41;;;;;;;5.35;1.15;;;4.90;99.90;;;;;;5137524;27;20482;-75
2022/04/09 00:19:06;;;;;;;8.90;1.50;;;4.80;99.90;;;;;;5137004;27;20130;-75
2022/04/09 00:21:32;;;;;;;6.60;1.38;;;4.90;99.90;;;;;;5137349;27;20050;-75
2022/04/09 00:23:58;;;;;;;4.18;1.20;;;4.80;99.90;;;;;;5155162;27;20117;-75
2022/04/09 00:26:24;;;;;;;8.88;1.30;;;4.80;99.90;;;;;;5155717;27;20050;-75
2022/04/09 00:28:49;;;;;;;15.18;2.25;;;4.80;99.90;;;;;;5137205;27;20485;-74
2022/04/09 00:31:15;;;;;;;5.65;1.58;;;4.90;99.90;;;;;;5136917;27;20383;-75
2022/04/09 00:33:41;;;;;;;5.07;1.13;;;4.90;99.90;;;;;;5103150;27;20047;-75
2022/04/09 00:36:07;;;;;;;6.13;1.75;;;5.00;99.90;;;;;;5136605;27;20038;-76
2022/04/09 00:38:32;;;;;;;4.25;1.20;;;4.90;99.90;;;;;;5136810;27;20111;-76
2022/04/09 00:40:58;;;;;;;8.68;1.45;;;5.00;99.90;;;;;;5136578;27;20433;-75
2022/04/09 00:43:24;;;;;;;5.90;1.33;;;4.90;99.90;;;;;;5137078;27;20097;-75
2022/04/09 00:45:49;;;;;;;4.43;1.00;;;4.80;99.90;;;;;;5102726;27;20397;-75
2022/04/09 00:48:15;;;;;;;2.92;0.90;;;4.80;99.90;;;;;;5136102;27;20103;-75
2022/04/09 00:50:41;;;;;;;4.75;1.20;;;4.80;99.90;;;;;;5119852;27;20130;-75
2022/04/09 00:53:09;;;;;;;4.85;1.10;;;4.80;99.90;;;;;;5136473;27;20042;-74
2022/04/09 00:58:20;;;;;;;4.72;1.25;;;4.70;99.90;;;;;;5123755;27;20057;-75
2022/04/09 01:00:46;;;;;;;7.72;1.40;;;4.70;99.90;;;;;;5119610;27;20042;-75
2022/04/09 01:03:12;;;;;;;6.50;1.35;;;4.70;99.90;;;;;;5136080;27;20371;-75
2022/04/09 01:05:39;;;;;;;4.35;1.00;;;4.70;99.90;;;;;;5119533;27;20122;-75
2022/04/09 01:08:05;;;;;;;5.43;1.25;;;4.70;99.90;;;;;;5119131;27;20082;-75
2022/04/09 01:10:31;;;;;;;4.65;1.20;;;4.60;99.90;;;;;;5136412;27;20053;-75
2022/04/09 01:12:56;;;;;;;5.05;1.27;;;4.60;99.90;;;;;;5102568;27;20382;-74
2022/04/09 01:15:22;;;;;;;2.33;1.15;;;4.60;99.90;;;;;;5135821;27;20058;-74
2022/04/09 01:17:48;;;;;;;3.50;1.00;;;4.60;99.90;;;;;;5119169;27;20081;-74
2022/04/09 01:20:21;;;;;;;3.83;1.50;;;4.60;99.90;;;;;;5153887;27;20520;-75
2022/04/09 01:22:46;;;;;;;7.97;1.50;;;4.50;99.90;;;;;;5119273;27;20121;-74
2022/04/09 01:25:12;;;;;;;4.72;1.48;;;4.50;99.90;;;;;;5101471;27;20487;-74
2022/04/09 01:27:38;;;;;;;7.57;1.80;;;4.60;99.90;;;;;;5136407;27;20050;-74
2022/04/09 01:30:05;;;;;;;6.78;1.48;;;4.60;99.90;;;;;;5136365;27;20182;-75
2022/04/09 01:32:30;;;;;;;4.65;1.38;;;4.60;99.90;;;;;;5136107;27;20058;-74
2022/04/09 01:34:58;;;;;;;7.60;1.42;;;4.70;99.90;;;;;;5118964;27;20395;-74
2022/04/09 01:37:24;;;;;;;4.05;1.30;;;4.70;99.90;;;;;;5101795;27;20103;-74
2022/04/09 01:39:50;;;;;;;5.25;1.40;;;4.80;99.90;;;;;;5101838;27;20058;-74
2022/04/09 01:42:15;;;;;;;7.00;1.50;;;4.80;99.90;;;;;;5135572;27;20038;-75
2022/04/09 01:44:41;;;;;;;4.88;1.25;;;4.80;99.90;;;;;;5136204;27;20051;-74
2022/04/09 01:47:06;;;;;;;4.90;1.30;;;4.70;99.90;;;;;;5118601;27;20043;-79
2022/04/09 01:49:32;;;;;;;5.05;1.35;;;4.70;99.90;;;;;;5154351;27;20091;-74
2022/04/09 01:51:58;;;;;;;10.60;1.65;;;4.70;99.90;;;;;;5154212;27;20034;-75
2022/04/09 01:54:23;;;;;;;8.75;1.40;;;4.60;99.90;;;;;;5135545;27;20053;-74
2022/04/09 01:56:49;;;;;;;10.23;1.67;;;4.70;99.90;;;;;;5154099;27;20121;-74
2022/04/09 01:59:14;;;;;;;8.88;1.38;;;4.70;99.90;;;;;;5135250;27;20125;-75
2022/04/09 02:01:40;;;;;;;9.27;1.67;;;4.80;99.90;;;;;;5118821;27;20038;-74
2022/04/09 02:04:07;;;;;;;5.85;1.38;;;4.70;99.90;;;;;;5135520;27;20046;-74
2022/04/09 02:06:32;;;;;;;8.27;1.50;;;4.70;99.90;;;;;;5118237;27;20378;-74
2022/04/09 02:08:58;;;;;;;6.97;1.80;;;4.70;99.90;;;;;;5135955;27;20043;-74
2022/04/09 02:11:24;;;;;;;5.43;1.30;;;4.70;99.90;;;;;;5139548;27;20054;-74
2022/04/09 02:13:52;;;;;;;6.45;1.50;;;4.60;99.90;;;;;;5158319;27;20421;-74
2022/04/09 02:16:18;;;;;;;8.07;1.42;;;4.60;99.90;;;;;;5157669;27;20179;-74
2022/04/09 02:18:44;;;;;;;8.48;1.40;;;4.60;99.90;;;;;;5158186;27;20129;-74
2022/04/09 02:21:13;;;;;;;4.55;1.40;;;4.50;99.90;;;;;;5158070;27;20050;-74
2022/04/09 02:23:38;;;;;;;4.80;1.42;;;4.40;99.90;;;;;;5158073;27;20046;-75
2022/04/09 02:26:04;;;;;;;6.70;1.27;;;4.50;99.90;;;;;;5139735;27;20061;-74
2022/04/09 02:28:31;;;;;;;5.82;1.15;;;4.40;99.90;;;;;;5157353;27;20126;-74
2022/04/09 02:30:57;;;;;;;7.70;1.23;;;4.40;99.90;;;;;;5157890;27;20042;-74
2022/04/09 02:33:22;;;;;;;6.45;1.30;;;4.40;99.90;;;;;;5139000;27;20034;-74
2022/04/09 02:35:48;;;;;;;6.57;1.20;;;4.30;99.90;;;;;;5157787;27;20095;-74
2022/04/09 02:38:14;;;;;;;6.38;1.30;;;4.30;99.90;;;;;;5138272;27;20046;-76
2022/04/09 02:40:39;;;;;;;7.80;1.40;;;4.30;99.90;;;;;;5157548;27;20042;-74
2022/04/09 02:43:06;;;;;;;8.10;1.10;;;4.20;99.90;;;;;;5139537;27;20133;-74
2022/04/09 02:45:32;;;;;;;7.90;1.40;;;4.30;99.90;;;;;;5139046;27;20085;-74
2022/04/09 02:47:58;;;;;;;5.90;1.35;;;4.30;99.90;;;;;;5139435;27;20443;-74
2022/04/09 02:50:23;;;;;;;7.82;1.40;;;4.30;99.90;;;;;;5121758;27;20490;-74
2022/04/09 02:52:49;;;;;;;4.97;1.05;;;4.20;99.90;;;;;;5122189;27;20466;-74
2022/04/09 02:55:14;;;;;;;7.80;1.20;;;4.20;99.90;;;;;;5157387;27;20483;-74
2022/04/09 02:57:40;;;;;;;5.03;1.02;;;4.20;99.90;;;;;;5157156;27;20462;-74
2022/04/09 03:00:08;;;;;;;5.38;1.20;;;4.20;99.90;;;;;;5122027;27;20414;-75
2022/04/09 03:02:38;;;;;;;7.32;1.40;;;4.20;99.90;;;;;;5121477;27;20148;-75
2022/04/09 03:05:07;;;;;;;10.48;1.63;;;4.20;99.90;;;;;;5138903;27;20047;-74
2022/04/09 03:07:33;;;;;;;5.65;1.20;;;4.20;99.90;;;;;;5138364;27;20046;-74
2022/04/09 03:09:58;;;;;;;6.18;1.10;;;4.10;99.90;;;;;;5157204;27;20508;-74
2022/04/09 03:12:24;;;;;;;6.70;1.30;;;4.10;99.90;;;;;;5104307;27;20477;-74
2022/04/09 03:14:50;;;;;;;5.57;1.50;;;4.10;99.90;;;;;;5157155;27;20053;-74
2022/04/09 03:17:15;;;;;;;5.20;1.35;;;4.10;99.90;;;;;;5121602;27;20395;-74
2022/04/09 03:19:41;;;;;;;8.13;1.35;;;4.10;99.90;;;;;;5156340;27;20050;-74
2022/04/09 03:22:06;;;;;;;9.30;1.50;;;4.00;99.90;;;;;;5120532;27;20050;-74
2022/04/09 03:24:32;;;;;;;7.35;1.13;;;4.10;99.90;;;;;;5156391;27;20050;-74
2022/04/09 03:26:58;;;;;;;8.55;1.60;;;4.10;99.90;;;;;;5156868;27;20060;-74
2022/04/09 03:29:23;;;;;;;4.80;1.17;;;4.10;99.90;;;;;;5138068;27;20075;-74
2022/04/09 03:31:49;;;;;;;8.25;1.45;;;4.10;99.90;;;;;;5104390;27;20091;-74
2022/04/09 03:34:14;;;;;;;4.50;1.20;;;4.00;99.90;;;;;;5121432;27;20039;-74
2022/04/09 03:36:42;;;;;;;7.47;1.40;;;4.20;99.90;;;;;;5137658;27;20047;-74
2022/04/09 03:39:08;;;;;;;8.23;1.50;;;4.20;99.90;;;;;;5156197;27;20062;-74
2022/04/09 03:41:33;;;;;;;8.60;1.20;;;4.20;99.90;;;;;;5137888;27;20398;-75
2022/04/09 03:43:59;;;;;;;7.05;1.23;;;4.20;99.90;;;;;;5156605;27;20051;-74
2022/04/09 03:46:24;;;;;;;5.97;1.00;;;4.20;99.90;;;;;;5155714;27;20043;-75
2022/04/09 03:48:50;;;;;;;2.50;0.90;;;4.20;99.90;;;;;;5137906;27;20050;-74
2022/04/09 03:51:16;;;;;;;3.95;1.10;;;4.20;99.90;;;;;;5121016;27;20043;-74
2022/04/09 03:53:41;;;;;;;4.35;1.00;;;4.20;99.90;;;;;;5155804;27;20089;-75
2022/04/09 03:56:07;;;;;;;3.40;0.90;;;4.10;99.90;;;;;;5120838;27;20042;-74
2022/04/09 03:58:35;;;;;;;7.20;0.85;;;4.20;99.90;;;;;;5136991;27;20046;-74
2022/04/09 04:01:01;;;;;;;4.78;0.75;;;4.10;99.90;;;;;;5137931;27;20491;-76
2022/04/09 04:03:27;;;;;;;4.60;1.20;;;4.10;99.90;;;;;;5155578;27;20098;-75
2022/04/09 04:05:53;;;;;;;5.50;1.20;;;4.10;99.90;;;;;;5120888;27;20046;-77
2022/04/09 04:08:19;;;;;;;2.70;0.70;;;4.10;99.90;;;;;;5137613;27;20124;-74
2022/04/09 04:10:44;;;;;;;3.63;1.25;;;4.10;99.90;;;;;;5137289;27;20055;-75
2022/04/09 04:13:11;;;;;;;4.05;1.10;;;4.10;99.90;;;;;;5155873;27;20046;-75
2022/04/09 04:15:37;;;;;;;5.40;1.08;;;4.10;99.90;;;;;;5155559;27;20050;-75
2022/04/09 04:18:03;;;;;;;5.72;1.50;;;4.10;99.90;;;;;;5120227;27;20039;-75
2022/04/09 04:20:29;;;;;;;7.60;2.15;;;4.10;99.90;;;;;;5137054;27;20042;-75
2022/04/09 04:22:54;;;;;;;5.55;1.60;;;4.20;99.90;;;;;;5155712;27;20043;-75
2022/04/09 04:25:20;;;;;;;8.45;2.22;;;4.10;99.90;;;;;;5137510;27;20050;-75
2022/04/09 04:27:47;;;;;;;5.53;1.38;;;4.20;99.90;;;;;;5119886;27;20047;-75
2022/04/09 04:30:13;;;;;;;6.65;1.20;;;4.20;99.90;;;;;;5120048;27;20049;-75
2022/04/09 04:32:39;;;;;;;5.88;1.35;;;4.30;99.90;;;;;;5119676;27;20125;-75
2022/04/09 04:35:05;;;;;;;5.47;1.50;;;4.30;99.90;;;;;;5137069;27;20130;-77
2022/04/09 04:37:37;;;;;;;8.75;1.30;;;4.20;99.90;;;;;;5119341;27;20035;-75
2022/04/09 04:40:04;;;;;;;7.40;1.42;;;4.30;99.90;;;;;;5136813;27;20054;-76
2022/04/09 04:42:30;;;;;;;6.40;1.30;;;4.20;99.90;;;;;;5120006;27;20060;-75
2022/04/09 04:44:56;;;;;;;10.57;1.85;;;4.30;99.90;;;;;;5120028;27;20389;-75
2022/04/09 04:47:21;;;;;;;8.23;1.60;;;4.30;99.90;;;;;;5137153;27;20046;-75
2022/04/09 04:49:47;;;;;;;12.68;1.88;;;4.30;99.90;;;;;;5136427;27;20049;-75
2022/04/09 04:52:12;;;;;;;9.10;1.60;;;4.30;99.90;;;;;;5119968;27;20082;-75
2022/04/09 04:54:38;;;;;;;9.18;1.60;;;4.40;99.90;;;;;;5136317;27;20489;-75
2022/04/09 04:57:04;;;;;;;9.00;1.60;;;4.30;99.90;;;;;;5136767;27;20395;-76
2022/04/09 04:59:29;;;;;;;7.60;1.63;;;4.30;99.90;;;;;;5136709;27;20408;-75
2022/04/09 05:01:55;;;;;;;10.00;1.33;;;4.30;99.90;;;;;;5136345;27;20091;-75
2022/04/09 05:04:20;;;;;;;5.00;1.35;;;4.30;99.90;;;;;;5119502;27;20046;-75
2022/04/09 05:06:48;;;;;;;8.38;1.30;;;4.30;99.90;;;;;;5118943;27;20050;-75
2022/04/09 05:09:14;;;;;;;5.18;1.27;;;4.30;99.90;;;;;;5119911;27;20092;-75
2022/04/09 05:11:40;;;;;;;8.13;1.30;;;4.30;99.90;;;;;;5154454;27;20050;-74
2022/04/09 05:14:06;;;;;;;9.35;1.63;;;4.30;99.90;;;;;;5136312;27;20039;-75
2022/04/09 05:16:31;;;;;;;7.03;1.33;;;4.30;99.90;;;;;;5135881;27;20118;-77
2022/04/09 05:18:57;;;;;;;10.77;1.50;;;4.30;99.90;;;;;;5118681;27;20092;-76
2022/04/09 05:21:23;;;;;;;8.43;1.55;;;4.30;99.90;;;;;;5119262;27;20043;-75
2022/04/09 05:23:48;;;;;;;6.05;1.25;;;4.30;99.90;;;;;;5118718;27;20042;-76
2022/04/09 05:26:14;;;;;;;11.13;1.50;;;4.30;99.90;;;;;;5136159;27;20053;-75
2022/04/09 05:28:40;;;;;;;7.53;1.58;;;4.20;99.90;;;;;;5101774;27;20038;-76
2022/04/09 05:31:06;;;;;;;7.65;1.45;;;4.20;99.90;;;;;;5119280;27;20196;-74
2022/04/09 05:33:32;;;;;;;3.65;1.15;;;4.20;99.90;;;;;;5136364;27;20501;-76
2022/04/09 05:35:57;;;;;;;10.68;1.58;;;4.20;99.90;;;;;;5135767;27;20050;-76
2022/04/09 05:38:23;;;;;;;11.95;2.10;;;4.20;99.90;;;;;;5135400;27;20061;-75
2022/04/09 05:40:49;;;;;;;8.95;1.70;;;4.20;99.90;;;;;;5118619;27;20125;-75
2022/04/09 05:43:15;;;;;;;8.70;1.80;;;4.20;99.90;;;;;;5102105;27;20043;-75
2022/04/09 05:45:40;;;;;;;9.40;1.35;;;4.30;99.90;;;;;;5153553;27;20047;-77
2022/04/09 05:48:06;;;;;;;13.57;1.83;;;4.40;99.90;;;;;;5118645;27;20046;-78
2022/04/09 05:50:32;;;;;;;6.60;1.50;;;4.50;99.90;;;;;;5135860;27;20075;-75
2022/04/09 05:52:57;;;;;;;10.10;1.42;;;4.60;99.90;;;;;;5135636;27;20074;-77
2022/04/09 05:55:23;;;;;;;10.00;1.90;;;4.70;99.90;;;;;;5118518;27;20062;-77
2022/04/09 05:57:49;;;;;;;10.18;1.63;;;4.80;99.90;;;;;;5118116;27;20041;-77
2022/04/09 06:00:16;;;;;;;7.30;1.50;;;4.70;99.90;;;;;;5154043;27;20444;-77
2022/04/09 06:02:42;;;;;;;9.35;1.50;;;4.70;99.90;;;;;;5118460;27;20042;-79
2022/04/09 06:05:08;;;;;;;6.88;1.25;;;4.70;99.90;;;;;;5118764;27;20143;-77
2022/04/09 06:07:34;;;;;;;7.68;1.55;;;4.70;99.90;;;;;;5119105;27;20093;-77
2022/04/09 06:10:00;;;;;;;9.90;2.05;;;4.70;99.90;;;;;;5101413;27;20049;-76
2022/04/09 06:12:26;;;;;;;8.10;1.33;;;4.60;99.90;;;;;;5118854;27;20046;-77
2022/04/09 06:14:51;;;;;;;9.38;1.83;;;4.70;99.90;;;;;;5135500;27;20042;-76
2022/04/09 06:17:17;;;;;;;10.23;2.13;;;4.70;99.90;;;;;;5135489;27;20065;-77
2022/04/09 06:19:47;;;;;;;9.80;1.55;;;4.70;99.90;;;;;;5118769;27;20055;-76
2022/04/09 06:22:12;;;;;;;10.13;1.70;;;4.80;99.90;;;;;;5135892;27;20394;-79
2022/04/09 06:24:38;;;;;;;11.63;1.65;;;4.80;99.90;;;;;;5101830;27;20039;-77
2022/04/09 06:27:04;;;;;;;11.00;2.00;;;4.80;99.90;;;;;;5153607;27;20535;-78
2022/04/09 06:29:29;;;;;;;10.25;1.60;;;4.80;99.90;;;;;;5135594;27;20082;-76
2022/04/09 06:31:55;;;;;;;8.07;1.98;;;4.80;99.90;;;;;;5135220;27;20043;-76
2022/04/09 06:34:21;;;;;;;9.38;1.75;;;5.00;99.90;;;;;;5135517;27;20047;-76
2022/04/09 06:36:46;;;;;;;11.85;1.83;;;5.10;99.90;;;;;;5101446;27;20042;-80
2022/04/09 06:39:12;;;;;;;6.35;1.70;;;5.40;99.90;;;;;;5117915;27;20051;-77
2022/04/09 06:41:38;;;;;;;10.98;1.70;;;5.60;99.90;;;;;;5135451;27;20047;-75
2022/04/09 06:44:04;;;;;;;10.38;1.90;;;5.50;99.90;;;;;;5134738;27;20054;-77
2022/04/09 06:46:29;;;;;;;16.08;1.98;;;5.50;99.90;;;;;;5135463;27;20050;-77
2022/04/09 06:48:55;;;;;;;6.03;1.73;;;5.50;99.90;;;;;;5100653;27;20046;-76
2022/04/09 06:51:22;;;;;;;8.75;1.83;;;5.50;99.90;;;;;;5135129;27;20446;-77
2022/04/09 06:53:48;;;;;;;7.95;1.70;;;5.40;99.90;;;;;;5135378;27;20051;-76
2022/04/09 06:56:14;;;;;;;12.57;2.28;;;5.50;99.90;;;;;;5118940;27;20057;-75
2022/04/09 06:58:40;;;;;;;8.88;1.75;;;5.30;99.90;;;;;;5105055;27;20117;-74
2022/04/09 07:01:05;;;;;;;9.98;2.00;;;5.40;99.90;;;;;;5104611;27;20138;-74
2022/04/09 07:03:31;;;;;;;12.25;1.77;;;5.40;99.90;;;;;;5157435;27;20048;-75
2022/04/09 07:05:57;;;;;;;8.13;1.70;;;5.50;99.90;;;;;;5138493;27;20046;-74
2022/04/09 07:08:23;;;;;;;8.60;1.80;;;5.50;99.90;;;;;;5138687;27;20051;-74
2022/04/09 07:10:48;;;;;;;9.25;1.77;;;5.60;99.90;;;;;;5138776;27;20050;-74
2022/04/09 07:13:14;;;;;;;11.43;1.50;;;5.80;99.90;;;;;;5121348;27;20050;-72
2022/04/09 07:15:40;;;;;;;14.60;2.03;;;5.90;99.90;;;;;;5138843;27;20082;-73
2022/04/09 07:18:06;;;;;;;6.70;1.55;;;6.00;99.90;;;;;;5137756;27;20443;-74
2022/04/09 07:20:35;;;;;;;7.00;1.60;;;6.10;99.90;;;;;;5138266;27;20046;-73
2022/04/09 07:23:02;;;;;;;8.38;1.60;;;6.30;99.90;;;;;;5138494;27;20557;-73
2022/04/09 07:25:31;;;;;;;12.60;1.63;;;6.30;99.90;;;;;;5138872;27;20051;-73
2022/04/09 07:27:57;;;;;;;4.30;1.10;;;6.40;99.90;;;;;;5121174;27;20057;-73
2022/04/09 07:30:24;;;;;;;6.15;1.70;;;6.40;99.90;;;;;;5138658;27;20039;-73
2022/04/09 07:32:50;;;;;;;7.57;1.70;;;6.50;99.90;;;;;;5138342;27;20106;-73
2022/04/09 07:35:15;;;;;;;6.70;1.15;;;6.50;99.90;;;;;;5156421;27;20486;-73
2022/04/09 07:37:45;;;;;;;10.85;1.67;;;6.50;99.90;;;;;;5120959;27;20035;-73
2022/04/09 07:40:12;;;;;;;5.83;1.43;;;6.50;99.90;;;;;;5156406;27;20133;-73
2022/04/09 07:42:39;;;;;;;8.60;1.50;;;6.60;99.90;;;;;;5121366;27;20284;-73
2022/04/09 07:45:05;;;;;;;5.82;1.08;;;6.60;99.90;;;;;;5156288;27;20053;-74
2022/04/09 07:47:30;;;;;;;7.88;1.20;;;6.70;99.90;;;;;;5138188;27;20038;-73
2022/04/09 07:49:56;;;;;;;8.50;1.60;;;6.70;99.90;;;;;;5156681;27;20127;-73
2022/04/09 07:52:22;;;;;;;7.85;1.30;;;6.70;99.90;;;;;;5138199;27;20042;-73
2022/04/09 07:54:48;;;;;;;7.50;1.60;;;6.70;99.90;;;;;;5156505;27;20042;-73
2022/04/09 07:57:13;;;;;;;9.93;1.52;;;6.80;99.90;;;;;;5137458;27;20041;-73
2022/04/09 07:59:39;;;;;;;8.30;1.75;;;6.80;99.90;;;;;;5121031;27;20108;-73
2022/04/09 08:02:05;;;;;;;9.45;1.50;;;7.00;99.90;;;;;;5155981;27;20078;-74
2022/04/09 08:04:31;;;;;;;11.65;1.88;;;7.00;99.90;;;;;;5156289;27;20046;-74
2022/04/09 08:06:56;;;;;;;12.23;1.80;;;7.20;99.90;;;;;;5137718;27;20095;-73
2022/04/09 08:09:22;;;;;;;12.07;1.67;;;7.30;99.90;;;;;;5155827;27;20043;-73
2022/04/09 08:11:47;;;;;;;11.35;2.10;;;7.40;99.90;;;;;;5156167;27;20039;-73
2022/04/09 08:14:13;;;;;;;8.52;1.70;;;7.50;99.90;;;;;;5137374;27;20042;-72
2022/04/09 08:16:39;;;;;;;11.40;1.80;;;7.60;99.90;;;;;;5156020;27;20120;-73
2022/04/09 08:19:05;;;;;;;11.30;2.22;;;7.60;99.90;;;;;;5136892;27;20042;-74
2022/04/09 08:21:30;;;;;;;10.15;2.00;;;7.70;99.90;;;;;;5156086;27;20053;-74
2022/04/09 08:23:56;;;;;;;11.30;1.83;;;7.70;99.90;;;;;;5137595;27;20537;-73
2022/04/09 08:26:22;;;;;;;6.95;1.52;;;7.80;99.90;;;;;;5120081;27;20125;-73
2022/04/09 08:28:47;;;;;;;10.98;1.83;;;7.80;99.90;;;;;;5155535;27;20039;-73
2022/04/09 08:31:13;;;;;;;16.23;1.65;;;7.80;99.90;;;;;;5155289;27;20049;-73
2022/04/09 08:33:41;;;;;;;8.15;1.63;;;7.90;99.90;;;;;;5103299;27;20053;-73
2022/04/09 08:36:07;;;;;;;8.85;1.40;;;8.00;99.90;;;;;;5155236;27;20047;-74
2022/04/09 08:38:33;;;;;;;8.63;1.50;;;8.10;99.90;;;;;;5102583;27;20115;-73
2022/04/09 08:41:02;;;;;;;8.15;1.40;;;8.10;99.90;;;;;;5137373;27;20054;-73
2022/04/09 08:43:28;;;;;;;8.80;1.50;;;8.00;99.90;;;;;;5120182;27;20051;-73
2022/04/09 08:45:54;;;;;;;9.38;1.70;;;7.80;99.90;;;;;;5120178;27;20050;-73
2022/04/09 08:48:20;;;;;;;8.98;1.65;;;7.80;99.90;;;;;;5119505;27;20042;-73
2022/04/09 08:50:46;;;;;;;10.27;1.80;;;7.70;99.90;;;;;;5136961;27;20115;-73
2022/04/09 08:53:11;;;;;;;8.10;1.95;;;7.70;99.90;;;;;;5119424;27;20047;-73
2022/04/09 08:55:37;;;;;;;10.45;2.05;;;7.70;99.90;;;;;;5155220;27;20080;-73
2022/04/09 08:58:03;;;;;;;14.23;1.67;;;7.70;99.90;;;;;;5102697;27;20065;-74
2022/04/09 09:00:29;;;;;;;6.63;1.60;;;7.80;99.90;;;;;;5136455;27;20130;-73
2022/04/09 09:02:59;;;;;;;10.00;1.80;;;8.00;99.90;;;;;;5155088;27;20488;-73
2022/04/09 09:05:29;;;;;;;10.70;1.77;;;8.10;99.90;;;;;;5136205;27;20521;-73
2022/04/09 09:07:55;;;;;;;9.20;1.60;;;8.20;99.90;;;;;;5136655;27;20129;-73
2022/04/09 09:10:21;;;;;;;9.02;1.58;;;8.10;99.90;;;;;;5154574;27;20130;-73
2022/04/09 09:13:10;;;;;;;8.43;1.45;;;8.00;99.90;;;;;;5136729;27;20050;-74
2022/04/09 09:15:46;;;;;;;13.70;1.73;;;8.00;99.90;;;;;;5155047;27;20129;-74
2022/04/09 09:18:35;;;;;;;11.32;1.90;;;8.00;99.90;;;;;;5135730;27;20130;-73
2022/04/09 09:21:02;;;;;;;13.13;2.28;;;8.00;99.90;;;;;;5136526;27;20035;-73
2022/04/09 09:23:29;;;;;;;9.85;2.10;;;8.00;99.90;;;;;;5136000;27;20414;-73
2022/04/09 09:25:55;;;;;;;12.35;1.90;;;8.00;99.90;;;;;;5119376;27;20042;-73
2022/04/09 09:28:28;;;;;;;9.13;1.40;;;8.10;99.90;;;;;;5135964;27;20050;-73
2022/04/09 09:30:54;;;;;;;8.90;1.20;;;8.20;99.90;;;;;;5136185;27;20055;-73
2022/04/09 09:33:20;;;;;;;8.55;1.58;;;8.10;99.90;;;;;;5102089;27;20528;-73
2022/04/09 09:35:55;;;;;;;7.00;1.55;;;8.10;99.90;;;;;;5154502;27;20047;-73
2022/04/09 09:38:27;;;;;;;11.18;1.50;;;8.10;99.90;;;;;;5135717;27;20479;-73
2022/04/09 09:40:53;;;;;;;10.73;1.55;;;8.30;99.90;;;;;;5136407;27;20080;-72
2022/04/09 09:43:20;;;;;;;11.13;1.50;;;8.40;99.90;;;;;;5135582;27;20051;-73
2022/04/09 09:45:46;;;;;;;54.78;4.13;;;8.40;99.90;;;;;;5136218;27;20081;-74
2022/04/09 09:48:22;;;;;;;12.50;1.40;;;8.30;99.90;;;;;;5136308;27;20137;-73
2022/04/09 09:50:47;;;;;;;13.45;1.95;;;8.20;99.90;;;;;;5119011;27;20133;-73
2022/04/09 09:53:14;;;;;;;12.43;1.85;;;8.10;99.90;;;;;;5118975;27;20081;-72
2022/04/09 09:55:45;;;;;;;12.80;1.85;;;8.00;99.90;;;;;;5136102;27;20392;-73
2022/04/09 09:58:17;;;;;;;7.75;1.70;;;8.10;99.90;;;;;;5135846;27;20133;-73
2022/04/09 10:00:43;;;;;;;13.60;2.25;;;8.30;99.90;;;;;;5154481;27;20095;-73
2022/04/09 10:03:13;;;;;;;4.72;1.15;;;8.40;99.90;;;;;;5135940;27;20470;-73
2022/04/09 10:05:42;;;;;;;7.80;1.08;;;8.40;99.90;;;;;;5118971;27;20098;-73
2022/04/09 10:08:08;;;;;;;9.73;1.23;;;8.20;99.90;;;;;;5119355;27;20065;-73
2022/04/09 10:10:38;;;;;;;7.72;1.65;;;8.10;99.90;;;;;;5154142;27;20050;-74
2022/04/09 10:13:04;;;;;;;4.03;0.90;;;7.90;99.90;;;;;;5135809;27;20047;-73
2022/04/09 10:15:30;;;;;;;5.25;0.98;;;7.90;99.90;;;;;;5135423;27;20398;-73
2022/04/09 10:17:57;;;;;;;5.90;1.40;;;7.80;99.90;;;;;;5118931;27;20054;-73
2022/04/09 10:20:25;;;;;;;4.72;1.08;;;7.90;99.90;;;;;;5118193;27;20115;-74
2022/04/09 10:22:53;;;;;;;5.22;0.80;;;7.90;99.90;;;;;;5154132;27;20046;-73
2022/04/09 10:25:19;;;;;;;3.40;0.50;;;7.90;99.90;;;;;;5102064;27;20449;-78
2022/04/09 10:27:49;;;;;;;4.28;0.73;;;8.00;99.90;;;;;;5118643;27;20078;-73
2022/04/09 10:30:19;;;;;;;;;;;8.00;99.90;;;;;;5119870;27;20054;-73
2022/04/09 10:32:50;;;;;;;5.65;1.23;;;8.10;99.90;;;;;;5158117;27;19919;-73
2022/04/09 10:35:24;;;;;;;3.42;0.90;;;8.00;99.90;;;;;;5157986;27;20179;-73
2022/04/09 10:38:12;;;;;;;5.15;1.10;;;8.00;99.90;;;;;;5157920;27;20046;-73
2022/04/09 10:40:52;;;;;;;5.30;1.02;;;8.00;99.90;;;;;;5138803;27;20116;-73
2022/04/09 10:43:21;;;;;;;5.33;0.83;;;7.90;99.90;;;;;;5157960;27;20062;-73
2022/04/09 10:46:02;;;;;;;4.13;1.00;;;7.90;99.90;;;;;;5157969;27;20407;-73
2022/04/09 10:48:29;;;;;;;4.88;0.77;;;7.80;99.90;;;;;;5157417;27;20047;-73
2022/04/09 10:50:58;;;;;;;4.95;0.88;;;7.80;99.90;;;;;;5157743;27;20042;-73
2022/04/09 10:53:28;;;;;;;5.22;1.02;;;7.90;99.90;;;;;;5157311;27;20111;-74
2022/04/09 10:56:13;;;;;;;4.80;0.85;;;8.00;99.90;;;;;;5139508;27;20227;-73
2022/04/09 10:58:58;;;;;;;5.07;1.00;;;8.20;99.90;;;;;;5157095;27;20042;-73
2022/04/09 11:01:46;;;;;;;5.85;0.85;;;8.40;99.90;;;;;;5157099;27;20042;-74
2022/04/09 11:04:31;;;;;;;7.53;1.23;;;8.70;99.90;;;;;;5157449;27;20038;-73
2022/04/09 11:07:06;;;;;;;8.23;1.55;;;8.90;99.90;;;;;;5139204;27;20065;-73
2022/04/09 11:09:50;;;;;;;5.07;1.45;;;9.10;99.90;;;;;;5138787;27;20054;-73
2022/04/09 11:12:20;;;;;;;5.35;1.20;;;9.30;99.90;;;;;;5157368;27;20043;-73
2022/04/09 11:14:51;;;;;;;9.40;1.25;;;9.30;99.90;;;;;;5121743;27;20492;-73
2022/04/09 11:17:27;;;;;;;6.15;1.65;;;9.30;99.90;;;;;;5157047;27;20050;-73
2022/04/09 11:19:53;;;;;;;6.40;0.90;;;9.20;99.90;;;;;;5121810;27;20054;-73
2022/04/09 11:22:19;;;;;;;4.07;0.82;;;9.10;99.90;;;;;;5157124;27;20050;-73
2022/04/09 11:24:45;;;;;;;8.02;1.15;;;9.10;99.90;;;;;;5138403;27;20051;-73
2022/04/09 11:27:10;;;;;;;3.88;0.80;;;9.00;99.90;;;;;;5121654;27;20035;-73
2022/04/09 11:29:37;;;;;;;5.65;1.10;;;9.00;99.90;;;;;;5121378;27;20034;-73
2022/04/09 11:32:03;;;;;;;4.25;0.82;;;9.10;99.90;;;;;;5156977;27;20406;-73
2022/04/09 11:34:45;;;;;;;4.43;0.90;;;9.20;99.90;;;;;;5121064;27;20104;-74
2022/04/09 11:37:11;;;;;;;3.03;0.60;;;9.50;99.90;;;;;;5156721;27;20046;-73
2022/04/09 11:39:40;;;;;;;3.92;0.77;;;9.50;99.90;;;;;;5134373;27;20067;-73
2022/04/09 11:42:07;;;;;;;4.20;1.23;;;9.60;99.90;;;;;;5135283;27;20090;-73
2022/04/09 11:44:32;;;;;;;4.88;1.02;;;9.50;99.90;;;;;;5135621;27;20047;-73
2022/04/09 11:47:08;;;;;;;7.22;1.30;;;9.50;99.90;;;;;;5135983;27;20054;-73
2022/04/09 11:49:34;;;;;;;3.55;0.80;;;9.50;98.80;;;;;;5135636;27;20039;-73
2022/04/09 11:51:59;;;;;;;5.60;1.00;;;9.40;99.90;;;;;;5132339;27;20043;-75
2022/04/09 11:54:27;;;;;;;5.07;1.00;;;9.50;99.90;;;;;;5134699;27;20399;-77
2022/04/09 11:56:52;;;;;;;4.55;1.05;;;9.60;99.90;;;;;;5116919;27;20491;-73
2022/04/09 11:59:18;;;;;;;6.18;1.10;;;9.80;99.90;;;;;;5117325;27;20089;-74
2022/04/09 12:01:47;;;;;;;6.35;1.02;;;9.90;99.30;;;;;;5083264;27;20039;-73
2022/04/09 12:04:16;;;;;;;5.55;0.90;;;10.00;99.90;;;;;;5117376;27;20062;-73
2022/04/09 12:06:41;;;;;;;3.42;0.70;;;9.90;99.90;;;;;;5116919;27;20085;-73
2022/04/09 12:09:07;;;;;;;2.90;0.70;;;9.80;99.90;;;;;;5134098;27;20079;-72
2022/04/09 12:11:33;;;;;;;3.60;0.68;;;9.60;99.90;;;;;;5116776;27;20501;-78
2022/04/09 12:14:09;;;;;;;4.22;0.68;;;9.50;99.90;;;;;;5135002;27;20043;-72
2022/04/09 12:16:40;;;;;;;3.50;0.70;;;9.50;99.90;;;;;;5133750;27;20437;-72
2022/04/09 12:19:09;;;;;;;3.92;0.63;;;9.40;99.90;;;;;;5117147;27;20039;-72
2022/04/09 12:21:35;;;;;;;3.22;0.47;;;9.50;99.90;;;;;;5112213;28;20052;-72
2022/04/09 12:24:06;;;;;;;2.95;0.60;;;9.50;99.90;;;;;;5096655;28;20050;-72
2022/04/09 12:26:33;;;;;;;2.97;0.40;;;9.40;99.90;;;;;;5113404;28;20047;-73
2022/04/09 12:29:26;;;;;;;3.15;0.60;;;9.40;99.90;;;;;;5114041;28;20039;-72
2022/04/09 12:31:52;;;;;;;2.05;0.43;;;9.40;99.90;;;;;;5081178;28;20043;-72
2022/04/09 12:34:19;;;;;;;1.48;0.85;;;9.40;99.90;;;;;;5096419;28;20059;-72
2022/04/09 12:37:01;;;;;;;2.05;0.50;;;9.50;99.90;;;;;;5078647;28;20051;-72
2022/04/09 12:39:27;;;;;;;2.40;0.60;;;9.70;99.90;;;;;;5095989;28;20052;-72
2022/04/09 12:41:53;;;;;;;3.78;0.85;;;9.70;99.90;;;;;;5095954;28;20130;-72
2022/04/09 12:44:31;;;;;;;4.20;0.73;;;9.80;99.90;;;;;;5096161;28;20136;-72
2022/04/09 12:46:57;;;;;;;4.65;0.88;;;9.80;99.90;;;;;;5095667;28;20786;-73
2022/04/09 12:49:33;;;;;;;4.80;0.85;;;9.70;99.90;;;;;;5112803;27;20039;-72
2022/04/09 12:51:59;;;;;;;5.15;1.08;;;9.70;99.80;;;;;;5095362;28;20062;-72
2022/04/09 12:54:26;;;;;;;3.28;0.70;;;9.70;99.90;;;;;;5078120;28;20039;-72
2022/04/09 12:56:51;;;;;;;3.83;0.82;;;9.70;99.90;;;;;;5095747;28;20396;-73
2022/04/09 12:59:17;;;;;;;4.28;0.90;;;9.70;99.90;;;;;;5113963;28;20047;-73